createdAt,value
2023-05-24T00:02:16.389Z,21.78
2023-05-24T00:04:45.279Z,21.71
2023-05-24T00:07:12.662Z,21.73
2023-05-24T00:09:39.472Z,21.73
2023-05-24T00:12:06.620Z,21.74
2023-05-24T00:14:33.662Z,21.66
2023-05-24T00:17:00.882Z,21.71
2023-05-24T00:19:27.765Z,21.68
2023-05-24T00:21:55.554Z,21.60
2023-05-24T00:24:22.306Z,21.66
2023-05-24T00:26:49.599Z,21.70
2023-05-24T00:29:16.413Z,21.67
2023-05-24T00:31:43.546Z,21.66
2023-05-24T00:34:10.465Z,21.54
2023-05-24T00:36:38.309Z,21.58
2023-05-24T00:39:05.261Z,21.59
2023-05-24T00:41:32.459Z,21.59
2023-05-24T00:43:59.304Z,21.55
2023-05-24T00:46:29.072Z,21.38
2023-05-24T00:48:56.085Z,21.47
2023-05-24T00:51:23.201Z,21.36
2023-05-24T00:53:50.016Z,21.40
2023-05-24T00:56:17.357Z,21.47
2023-05-24T00:58:44.514Z,21.44
2023-05-24T01:01:11.730Z,21.37
2023-05-24T01:03:39.641Z,21.35
2023-05-24T01:06:07.983Z,21.35
2023-05-24T01:08:38.763Z,21.39
2023-05-24T01:11:14.752Z,21.38
2023-05-24T01:13:59.607Z,21.27
2023-05-24T01:17:11.781Z,21.30
2023-05-24T01:19:57.620Z,21.30
2023-05-24T01:22:28.670Z,21.26
2023-05-24T01:25:06.414Z,21.23
2023-05-24T01:27:34.148Z,21.31
2023-05-24T01:30:01.218Z,21.25
2023-05-24T01:32:28.629Z,21.15
2023-05-24T01:34:55.554Z,21.22
2023-05-24T01:37:22.789Z,21.20
2023-05-24T01:39:49.529Z,21.25
2023-05-24T01:42:27.943Z,21.17
2023-05-24T01:45:16.957Z,21.17
2023-05-24T01:48:08.865Z,21.13
2023-05-24T01:50:37.518Z,21.16
2023-05-24T01:53:07.228Z,21.10
2023-05-24T01:55:34.340Z,21.13
2023-05-24T01:58:03.100Z,21.15
2023-05-24T02:00:29.956Z,21.13
2023-05-24T02:02:57.859Z,21.12
2023-05-24T02:05:24.952Z,21.10
2023-05-24T02:07:51.975Z,21.13
2023-05-24T02:10:18.805Z,21.13
2023-05-24T02:12:45.902Z,21.18
2023-05-24T02:15:14.752Z,21.13
2023-05-24T02:17:42.959Z,21.11
2023-05-24T02:20:10.951Z,21.05
2023-05-24T02:22:38.264Z,21.03
2023-05-24T02:25:05.502Z,21.03
2023-05-24T02:27:32.605Z,21.09
2023-05-24T02:29:59.419Z,21.03
2023-05-24T02:32:26.471Z,21.00
2023-05-24T02:34:53.283Z,20.98
2023-05-24T02:37:20.730Z,20.96
2023-05-24T02:39:47.607Z,20.88
2023-05-24T02:42:14.658Z,20.94
2023-05-24T02:44:42.844Z,20.88
2023-05-24T02:47:09.958Z,20.89
2023-05-24T02:49:36.755Z,20.87
2023-05-24T02:52:04.000Z,20.84
2023-05-24T02:54:30.812Z,20.89
2023-05-24T02:56:58.120Z,20.88
2023-05-24T02:59:24.980Z,20.86
2023-05-24T03:01:52.037Z,20.84
2023-05-24T03:04:18.794Z,20.80
2023-05-24T03:06:45.862Z,20.78
2023-05-24T03:09:13.068Z,20.79
2023-05-24T03:11:40.103Z,20.79
2023-05-24T03:14:06.860Z,20.76
2023-05-24T03:16:33.916Z,20.78
2023-05-24T03:19:00.771Z,20.75
2023-05-24T03:21:27.789Z,20.65
2023-05-24T03:23:54.547Z,20.66
2023-05-24T03:26:21.971Z,20.61
2023-05-24T03:28:50.603Z,20.68
2023-05-24T03:31:20.796Z,20.63
2023-05-24T03:33:47.864Z,20.56
2023-05-24T03:36:14.910Z,20.56
2023-05-24T03:38:41.654Z,20.53
2023-05-24T03:41:08.730Z,20.53
2023-05-24T03:43:35.562Z,20.51
2023-05-24T03:48:29.445Z,20.40
2023-05-24T03:50:56.488Z,20.25
2023-05-24T03:53:23.566Z,20.23
2023-05-24T03:55:51.050Z,20.16
2023-05-24T03:58:17.843Z,20.21
2023-05-24T04:00:45.105Z,20.20
2023-05-24T04:03:12.443Z,20.22
2023-05-24T04:05:39.777Z,20.24
2023-05-24T04:08:06.611Z,20.25
2023-05-24T04:10:33.704Z,20.22
2023-05-24T04:13:00.813Z,20.10
2023-05-24T04:15:27.963Z,20.01
2023-05-24T04:17:55.756Z,19.96
2023-05-24T04:20:27.604Z,20.13
2023-05-24T04:22:54.635Z,20.11
2023-05-24T04:25:22.051Z,20.12
2023-05-24T04:27:48.890Z,20.18
2023-05-24T04:30:16.702Z,20.08
2023-05-24T04:32:44.721Z,20.00
2023-05-24T04:35:12.017Z,20.00
2023-05-24T04:37:40.408Z,19.96
2023-05-24T04:40:08.343Z,19.94
2023-05-24T04:42:35.515Z,19.96
2023-05-24T04:45:02.952Z,19.93
2023-05-24T04:47:30.030Z,19.88
2023-05-24T04:49:57.118Z,19.87
2023-05-24T04:52:23.873Z,19.96
2023-05-24T04:54:51.264Z,19.86
2023-05-24T04:57:18.073Z,19.90
2023-05-24T04:59:45.161Z,19.80
2023-05-24T05:02:12.111Z,19.54
2023-05-24T05:04:39.405Z,19.54
2023-05-24T05:07:06.161Z,19.75
2023-05-24T05:09:33.197Z,19.74
2023-05-24T05:12:00.025Z,19.62
2023-05-24T05:14:27.113Z,19.58
2023-05-24T05:16:53.843Z,19.46
2023-05-24T05:19:21.612Z,19.47
2023-05-24T05:21:48.376Z,19.46
2023-05-24T05:24:16.441Z,19.57
2023-05-24T05:26:43.204Z,19.46
2023-05-24T05:29:10.248Z,19.41
2023-05-24T05:31:37.074Z,19.34
2023-05-24T05:34:04.159Z,19.43
2023-05-24T05:36:31.215Z,19.52
2023-05-24T05:38:58.307Z,19.49
2023-05-24T05:41:25.099Z,19.51
2023-05-24T05:43:52.106Z,19.37
2023-05-24T05:46:20.941Z,19.39
2023-05-24T05:48:48.150Z,19.38
2023-05-24T05:51:14.848Z,19.46
2023-05-24T05:53:41.913Z,19.46
2023-05-24T05:56:08.678Z,19.23
2023-05-24T05:58:35.927Z,19.27
2023-05-24T06:01:02.668Z,19.28
2023-05-24T06:03:29.921Z,19.14
2023-05-24T06:05:56.898Z,19.16
2023-05-24T06:08:23.977Z,19.11
2023-05-24T06:10:52.961Z,19.08
2023-05-24T06:13:20.246Z,19.00
2023-05-24T06:15:47.016Z,18.96
2023-05-24T06:18:15.475Z,18.80
2023-05-24T06:20:42.520Z,18.93
2023-05-24T06:23:09.779Z,18.87
2023-05-24T06:25:38.719Z,19.03
2023-05-24T06:28:05.975Z,18.95
2023-05-24T06:30:33.776Z,18.91
2023-05-24T06:33:01.655Z,18.87
2023-05-24T06:35:28.500Z,18.87
2023-05-24T06:37:57.559Z,18.89
2023-05-24T06:40:24.510Z,18.78
2023-05-24T06:42:51.564Z,18.83
2023-05-24T06:45:18.350Z,18.80
2023-05-24T06:47:45.605Z,18.78
2023-05-24T06:50:12.394Z,18.77
2023-05-24T06:52:39.628Z,18.71
2023-05-24T06:55:06.555Z,18.70
2023-05-24T06:57:33.599Z,18.68
2023-05-24T07:00:00.364Z,18.78
2023-05-24T07:02:28.721Z,18.76
2023-05-24T07:04:55.765Z,18.76
2023-05-24T07:07:23.029Z,18.65
2023-05-24T07:09:49.903Z,18.73
2023-05-24T07:12:17.049Z,18.86
2023-05-24T07:14:43.887Z,18.87
2023-05-24T07:17:11.140Z,18.95
2023-05-24T07:19:38.153Z,18.89
2023-05-24T07:22:05.399Z,18.92
2023-05-24T07:24:32.182Z,18.90
2023-05-24T07:26:59.337Z,19.00
2023-05-24T07:29:26.262Z,19.04
2023-05-24T07:31:56.196Z,18.87
2023-05-24T07:34:23.945Z,18.90
2023-05-24T07:36:51.061Z,19.08
2023-05-24T07:39:17.910Z,18.94
2023-05-24T07:41:45.229Z,18.88
2023-05-24T07:44:13.403Z,18.87
2023-05-24T07:46:40.606Z,18.94
2023-05-24T07:49:07.464Z,19.03
2023-05-24T07:51:34.507Z,19.13
2023-05-24T07:54:01.554Z,19.13
2023-05-24T07:56:29.234Z,19.06
2023-05-24T07:59:03.439Z,19.12
2023-05-24T08:01:32.080Z,19.16
2023-05-24T08:03:58.960Z,19.05
2023-05-24T08:06:26.584Z,18.91
2023-05-24T08:08:53.495Z,18.87
2023-05-24T08:11:20.585Z,18.83
2023-05-24T08:13:47.789Z,18.90
2023-05-24T08:16:14.948Z,18.99
2023-05-24T08:18:42.007Z,18.99
2023-05-24T08:21:09.268Z,18.87
2023-05-24T08:23:36.641Z,18.86
2023-05-24T08:26:03.870Z,18.95
2023-05-24T08:28:30.735Z,18.84
2023-05-24T08:30:59.359Z,19.00
2023-05-24T08:33:26.317Z,19.08
2023-05-24T08:35:53.418Z,19.13
2023-05-24T08:38:20.183Z,19.10
2023-05-24T08:40:47.871Z,18.94
2023-05-24T08:43:14.685Z,18.97
2023-05-24T08:45:42.027Z,19.01
2023-05-24T08:48:09.452Z,19.00
2023-05-24T08:50:36.597Z,18.99
2023-05-24T08:53:03.533Z,18.99
2023-05-24T08:55:33.719Z,19.03
2023-05-24T08:58:00.583Z,19.03
2023-05-24T09:00:27.735Z,19.08
2023-05-24T09:02:54.620Z,19.05
2023-05-24T09:05:22.151Z,19.07
2023-05-24T09:07:49.734Z,19.13
2023-05-24T09:10:17.167Z,19.09
2023-05-24T09:12:48.911Z,19.16
2023-05-24T09:15:15.959Z,19.18
2023-05-24T09:17:42.905Z,19.19
2023-05-24T09:20:11.256Z,19.19
2023-05-24T09:22:41.278Z,19.20
2023-05-24T09:25:09.983Z,19.17
2023-05-24T09:27:37.646Z,19.17
2023-05-24T09:30:09.185Z,19.27
2023-05-24T09:32:36.052Z,19.25
2023-05-24T09:35:03.212Z,19.29
2023-05-24T09:37:32.898Z,19.23
2023-05-24T09:40:00.493Z,19.23
2023-05-24T09:42:28.913Z,19.26
2023-05-24T09:45:06.682Z,19.20
2023-05-24T09:47:34.888Z,19.26
2023-05-24T09:50:02.929Z,19.30
2023-05-24T09:52:29.826Z,19.29
2023-05-24T09:54:56.884Z,19.27
2023-05-24T09:57:23.817Z,19.38
2023-05-24T09:59:51.832Z,19.44
2023-05-24T10:02:22.904Z,19.42
2023-05-24T10:04:57.373Z,19.41
2023-05-24T10:07:24.174Z,19.40
2023-05-24T10:09:51.757Z,19.40
2023-05-24T10:12:18.987Z,19.43
2023-05-24T10:14:46.111Z,19.45
2023-05-24T10:17:13.041Z,19.46
2023-05-24T10:19:41.592Z,19.45
2023-05-24T10:22:08.970Z,19.57
2023-05-24T10:24:41.170Z,19.62
2023-05-24T10:27:10.304Z,19.68
2023-05-24T10:29:45.335Z,19.65
2023-05-24T10:32:13.653Z,19.71
2023-05-24T10:34:41.003Z,19.62
2023-05-24T10:37:09.618Z,19.67
2023-05-24T10:39:37.317Z,19.68
2023-05-24T10:42:06.666Z,19.57
2023-05-24T10:44:35.937Z,19.70
2023-05-24T10:47:13.284Z,19.65
2023-05-24T10:49:53.416Z,19.61
2023-05-24T10:52:20.621Z,19.68
2023-05-24T10:55:10.500Z,19.75
2023-05-24T10:57:38.460Z,19.78
2023-05-24T11:00:41.017Z,19.69
2023-05-24T11:03:09.175Z,19.76
2023-05-24T11:05:49.886Z,19.83
2023-05-24T11:08:26.389Z,19.86
2023-05-24T11:11:22.044Z,19.90
2023-05-24T11:13:56.023Z,19.90
2023-05-24T11:16:37.845Z,19.92
2023-05-24T11:19:18.636Z,19.95
2023-05-24T11:21:46.313Z,19.96
2023-05-24T11:24:13.222Z,19.97
2023-05-24T11:26:41.192Z,20.00
2023-05-24T11:29:08.035Z,20.02
2023-05-24T11:31:42.447Z,20.01
2023-05-24T11:34:10.886Z,20.03
2023-05-24T11:36:37.988Z,20.06
2023-05-24T11:39:08.410Z,20.07
2023-05-24T11:41:38.847Z,20.09
2023-05-24T11:44:07.347Z,20.14
2023-05-24T11:46:34.537Z,20.14
2023-05-24T11:49:01.395Z,20.17
2023-05-24T11:51:33.064Z,20.24
2023-05-24T11:54:00.213Z,20.22
2023-05-24T11:56:30.936Z,20.25
2023-05-24T11:59:11.343Z,20.20
2023-05-24T12:01:38.460Z,20.23
2023-05-24T12:04:06.049Z,20.26
2023-05-24T12:06:43.340Z,20.27
2023-05-24T12:09:13.471Z,20.27
2023-05-24T12:11:41.490Z,20.28
2023-05-24T12:14:14.512Z,20.27
2023-05-24T12:16:45.556Z,20.26
2023-05-24T12:19:31.674Z,20.31
2023-05-24T12:22:00.320Z,20.32
2023-05-24T12:24:27.644Z,20.30
2023-05-24T12:27:02.168Z,20.33
2023-05-24T12:29:35.686Z,20.32
2023-05-24T12:32:03.092Z,20.33
2023-05-24T12:34:30.056Z,20.34
2023-05-24T12:36:57.260Z,20.38
2023-05-24T12:39:31.074Z,20.38
2023-05-24T12:41:58.803Z,20.36
2023-05-24T12:44:26.520Z,20.44
2023-05-24T12:46:54.328Z,20.40
2023-05-24T12:49:21.487Z,20.41
2023-05-24T12:51:49.600Z,20.44
2023-05-24T12:54:19.257Z,20.41
2023-05-24T12:56:46.343Z,20.44
2023-05-24T12:59:13.123Z,20.48
2023-05-24T13:01:40.350Z,20.46
2023-05-24T13:04:07.386Z,20.48
2023-05-24T13:06:34.440Z,20.53
2023-05-24T13:09:02.073Z,20.55
2023-05-24T13:11:31.149Z,20.50
2023-05-24T13:13:59.675Z,20.51
2023-05-24T13:16:26.927Z,20.48
2023-05-24T13:18:53.971Z,20.48
2023-05-24T13:21:21.637Z,20.55
2023-05-24T13:23:48.414Z,20.49
2023-05-24T13:26:15.498Z,20.57
2023-05-24T13:28:58.692Z,20.60
2023-05-24T13:31:30.604Z,20.68
2023-05-24T13:33:57.733Z,20.71
2023-05-24T13:36:24.807Z,20.71
2023-05-24T13:38:59.493Z,20.74
2023-05-24T13:41:34.428Z,20.75
2023-05-24T13:44:01.320Z,20.77
2023-05-24T13:46:29.128Z,20.78
2023-05-24T13:48:56.981Z,20.78
2023-05-24T13:51:24.275Z,20.81
2023-05-24T13:53:51.137Z,20.86
2023-05-24T13:56:18.697Z,20.87
2023-05-24T13:58:45.894Z,20.96
2023-05-24T14:01:13.031Z,20.93
2023-05-24T14:03:41.132Z,20.94
2023-05-24T14:06:09.200Z,20.92
2023-05-24T14:08:36.190Z,20.96
2023-05-24T14:11:03.324Z,20.97
2023-05-24T14:16:00.213Z,21.00
2023-05-24T14:18:27.069Z,21.01
2023-05-24T14:20:54.132Z,21.03
2023-05-24T14:23:21.000Z,21.05
2023-05-24T14:25:48.101Z,21.07
2023-05-24T14:28:14.860Z,21.09
2023-05-24T14:30:42.169Z,21.07
2023-05-24T14:33:11.510Z,21.11
2023-05-24T14:35:39.916Z,21.12
2023-05-24T14:38:07.834Z,21.13
2023-05-24T14:40:36.990Z,21.14
2023-05-24T14:43:04.859Z,21.13
2023-05-24T14:45:32.311Z,21.12
2023-05-24T14:48:00.827Z,21.17
2023-05-24T14:50:28.189Z,21.17
2023-05-24T14:52:55.742Z,21.19
2023-05-24T14:55:23.066Z,21.18
2023-05-24T14:57:50.056Z,21.19
2023-05-24T15:00:20.575Z,21.35
2023-05-24T15:02:49.287Z,21.28
2023-05-24T15:05:16.866Z,21.22
2023-05-24T15:07:43.618Z,21.25
2023-05-24T15:10:11.109Z,21.24
2023-05-24T15:12:38.147Z,21.22
2023-05-24T15:15:06.832Z,21.25
2023-05-24T15:17:33.767Z,21.23
2023-05-24T15:20:01.092Z,21.25
2023-05-24T15:22:27.884Z,21.24
2023-05-24T15:24:54.960Z,21.23
2023-05-24T15:27:22.024Z,21.23
2023-05-24T15:29:49.130Z,21.23
2023-05-24T15:32:15.890Z,21.21
2023-05-24T15:34:42.985Z,21.22
2023-05-24T15:37:09.855Z,21.20
2023-05-24T15:39:36.955Z,21.18
2023-05-24T15:42:03.865Z,21.20
2023-05-24T15:44:31.571Z,21.16
2023-05-24T15:46:58.400Z,21.17
2023-05-24T15:49:25.761Z,21.14
2023-05-24T15:54:22.496Z,21.14
2023-05-24T15:56:50.014Z,21.09
2023-05-24T15:59:17.812Z,21.09
2023-05-24T16:01:45.342Z,21.10
2023-05-24T16:04:12.879Z,21.06
2023-05-24T16:06:39.712Z,21.05
2023-05-24T16:09:08.138Z,21.06
2023-05-24T16:11:35.785Z,21.04
2023-05-24T16:14:03.680Z,21.04
2023-05-24T16:16:30.667Z,21.00
2023-05-24T16:18:57.847Z,20.99
2023-05-24T16:21:24.803Z,20.95
2023-05-24T16:23:51.923Z,20.91
2023-05-24T16:26:18.663Z,20.90
2023-05-24T16:28:45.768Z,20.89
2023-05-24T16:31:12.598Z,20.84
2023-05-24T16:33:39.956Z,20.85
2023-05-24T16:36:06.860Z,20.80
2023-05-24T16:38:34.012Z,20.74
2023-05-24T16:41:00.819Z,20.72
2023-05-24T16:43:27.904Z,20.71
2023-05-24T16:45:55.306Z,20.71
2023-05-24T16:48:28.284Z,20.62
2023-05-24T16:50:58.354Z,20.61
2023-05-24T16:53:26.858Z,20.58
2023-05-24T16:55:54.844Z,20.55
2023-05-24T16:58:25.385Z,20.51
2023-05-24T17:00:54.525Z,20.49
2023-05-24T17:03:27.743Z,20.47
2023-05-24T17:05:55.568Z,20.46
2023-05-24T17:08:22.786Z,20.46
2023-05-24T17:10:55.816Z,20.44
2023-05-24T17:13:23.716Z,20.41
2023-05-24T17:15:53.839Z,20.42
2023-05-24T17:18:27.747Z,20.43
2023-05-24T17:21:01.769Z,20.43
2023-05-24T17:23:33.770Z,20.39
2023-05-24T17:26:01.440Z,20.37
2023-05-24T17:28:28.572Z,20.35
2023-05-24T17:30:59.446Z,20.34
2023-05-24T17:33:27.966Z,20.34
2023-05-24T17:35:57.999Z,20.31
2023-05-24T17:38:25.329Z,20.31
2023-05-24T17:40:57.155Z,20.28
2023-05-24T17:43:25.172Z,20.24
2023-05-24T17:45:52.095Z,20.23
2023-05-24T17:48:19.194Z,20.19
2023-05-24T17:50:45.925Z,20.21
2023-05-24T17:53:29.922Z,20.19
2023-05-24T17:55:58.142Z,20.18
2023-05-24T17:58:25.294Z,20.17
2023-05-24T18:00:52.236Z,20.17
2023-05-24T18:03:19.346Z,20.16
2023-05-24T18:05:46.391Z,20.15
2023-05-24T18:08:13.473Z,20.11
2023-05-24T18:10:40.454Z,20.13
2023-05-24T18:13:11.225Z,20.08
2023-05-24T18:15:38.020Z,20.02
2023-05-24T18:18:05.293Z,20.08
2023-05-24T18:20:32.167Z,20.02
2023-05-24T18:22:59.363Z,20.03
2023-05-24T18:25:26.390Z,20.04
2023-05-24T18:27:53.436Z,20.01
2023-05-24T18:30:20.322Z,20.00
2023-05-24T18:33:03.611Z,19.97
2023-05-24T18:35:32.561Z,19.96
2023-05-24T18:37:59.653Z,19.98
2023-05-24T18:40:26.533Z,19.93
2023-05-24T18:42:53.692Z,19.92
2023-05-24T18:45:20.567Z,19.93
2023-05-24T18:47:47.824Z,19.91
2023-05-24T18:50:14.726Z,19.89
2023-05-24T18:52:41.874Z,19.87
2023-05-24T18:55:10.909Z,19.90
2023-05-24T18:57:38.210Z,19.83
2023-05-24T19:00:06.991Z,19.87
2023-05-24T19:02:39.065Z,19.89
2023-05-24T19:05:07.391Z,19.86
2023-05-24T19:07:35.241Z,19.83
2023-05-24T19:10:02.173Z,19.75
2023-05-24T19:12:30.157Z,19.80
2023-05-24T19:14:57.315Z,19.80
2023-05-24T19:17:25.111Z,19.76
2023-05-24T19:19:52.190Z,19.78
2023-05-24T19:22:19.435Z,19.73
2023-05-24T19:24:46.240Z,19.71
2023-05-24T19:27:14.708Z,19.72
2023-05-24T19:29:41.536Z,19.63
2023-05-24T19:32:08.955Z,19.62
2023-05-24T19:34:37.385Z,19.61
2023-05-24T19:37:04.673Z,19.60
2023-05-24T19:39:31.975Z,19.56
2023-05-24T19:41:59.019Z,19.60
2023-05-24T19:44:25.974Z,19.58
2023-05-24T19:46:53.190Z,19.54
2023-05-24T19:49:20.015Z,19.55
2023-05-24T19:51:47.158Z,19.54
2023-05-24T19:54:14.848Z,19.51
2023-05-24T19:56:42.018Z,19.45
2023-05-24T19:59:08.836Z,19.52
2023-05-24T20:01:36.123Z,19.48
2023-05-24T20:04:03.122Z,19.45
2023-05-24T20:06:31.522Z,19.41
2023-05-24T20:08:59.792Z,19.41
2023-05-24T20:11:28.125Z,19.38
2023-05-24T20:13:56.189Z,19.42
2023-05-24T20:16:23.551Z,19.39
2023-05-24T20:18:50.432Z,19.36
2023-05-24T20:21:17.795Z,19.30
2023-05-24T20:23:44.559Z,19.31
2023-05-24T20:26:11.762Z,19.27
2023-05-24T20:28:38.543Z,19.23
2023-05-24T20:31:06.388Z,19.22
2023-05-24T20:33:37.816Z,19.26
2023-05-24T20:36:05.461Z,19.23
2023-05-24T20:38:32.309Z,19.23
2023-05-24T20:40:59.984Z,19.20
2023-05-24T20:43:26.819Z,19.18
2023-05-24T20:45:54.185Z,19.18
2023-05-24T20:48:21.186Z,19.18
2023-05-24T20:50:48.398Z,19.15
2023-05-24T20:53:15.231Z,19.16
2023-05-24T20:55:42.521Z,19.12
2023-05-24T20:58:09.483Z,19.15
2023-05-24T21:00:38.862Z,19.12
2023-05-24T21:03:06.764Z,19.10
2023-05-24T21:05:36.382Z,19.05
2023-05-24T21:08:03.774Z,19.04
2023-05-24T21:10:32.288Z,19.02
2023-05-24T21:12:59.054Z,19.07
2023-05-24T21:15:26.161Z,19.02
2023-05-24T21:17:52.971Z,19.02
2023-05-24T21:20:20.219Z,18.99
2023-05-24T21:22:47.330Z,18.93
2023-05-24T21:25:14.538Z,18.88
2023-05-24T21:27:41.282Z,18.85
2023-05-24T21:30:08.980Z,18.87
2023-05-24T21:32:35.813Z,18.87
2023-05-24T21:35:02.887Z,18.89
2023-05-24T21:37:29.722Z,18.86
2023-05-24T21:39:56.948Z,18.83
2023-05-24T21:42:23.702Z,18.81
2023-05-24T21:44:50.765Z,18.79
2023-05-24T21:47:17.597Z,18.79
2023-05-24T21:49:44.809Z,18.76
2023-05-24T21:52:11.701Z,18.77
2023-05-24T21:54:38.811Z,18.73
2023-05-24T21:57:07.350Z,18.72
2023-05-24T21:59:34.497Z,18.69
2023-05-24T22:02:01.407Z,18.69
2023-05-24T22:04:28.514Z,18.67
2023-05-24T22:06:55.443Z,18.70
2023-05-24T22:09:22.506Z,18.63
2023-05-24T22:11:49.272Z,18.64
2023-05-24T22:14:16.486Z,18.64
2023-05-24T22:16:43.329Z,18.64
2023-05-24T22:19:16.666Z,18.70
2023-05-24T22:21:45.932Z,18.67
2023-05-24T22:24:13.698Z,18.65
2023-05-24T22:26:47.121Z,18.57
2023-05-24T22:29:14.511Z,18.59
2023-05-24T22:31:41.548Z,18.58
2023-05-24T22:34:11.243Z,18.62
2023-05-24T22:36:39.042Z,18.59
2023-05-24T22:39:06.393Z,18.61
2023-05-24T22:41:33.286Z,18.53
2023-05-24T22:44:00.403Z,18.52
2023-05-24T22:46:27.252Z,18.47
2023-05-24T22:48:56.775Z,18.43
2023-05-24T22:51:23.787Z,18.40
2023-05-24T22:53:52.752Z,18.39
2023-05-24T22:56:19.685Z,18.38
2023-05-24T22:58:46.784Z,18.30
2023-05-24T23:01:15.164Z,18.27
2023-05-24T23:03:42.380Z,18.27
2023-05-24T23:06:11.992Z,18.24
2023-05-24T23:08:39.358Z,18.21
2023-05-24T23:11:10.294Z,18.27
2023-05-24T23:13:37.712Z,18.24
2023-05-24T23:16:05.596Z,18.22
2023-05-24T23:18:33.035Z,18.17
2023-05-24T23:21:01.047Z,18.14
2023-05-24T23:23:28.093Z,18.02
2023-05-24T23:25:54.855Z,18.09
2023-05-24T23:28:21.926Z,18.09
2023-05-24T23:30:48.678Z,18.03
2023-05-24T23:33:15.971Z,18.06
2023-05-24T23:35:42.952Z,18.01
2023-05-24T23:38:10.172Z,17.96
2023-05-24T23:40:37.001Z,17.98
2023-05-24T23:43:04.344Z,17.97
2023-05-24T23:45:31.305Z,17.99
2023-05-24T23:47:58.817Z,17.88
2023-05-24T23:50:27.310Z,17.88
2023-05-24T23:52:54.691Z,17.84
2023-05-24T23:55:22.297Z,17.82
2023-05-24T23:57:49.837Z,17.76
